sensor_id;sensor_type;location;lat;lon;timestamp;temperature;humidity
13433;DHT22;6789;47.678;9.158;2023-08-30T00:03:11;13.40;99.90
13433;DHT22;6789;47.678;9.158;2023-08-30T00:08:04;13.40;99.90
13433;DHT22;6789;47.678;9.158;2023-08-30T00:12:55;13.40;99.90
13433;DHT22;6789;47.678;9.158;2023-08-30T00:17:47;13.40;99.90
13433;DHT22;6789;47.678;9.158;2023-08-30T00:22:39;13.50;99.90
13433;DHT22;6789;47.678;9.158;2023-08-30T00:27:31;13.50;99.90
13433;DHT22;6789;47.678;9.158;2023-08-30T00:32:22;13.40;99.90
13433;DHT22;6789;47.678;9.158;2023-08-30T00:37:15;13.40;99.90
13433;DHT22;6789;47.678;9.158;2023-08-30T00:42:07;13.40;99.90
13433;DHT22;6789;47.678;9.158;2023-08-30T00:47:00;13.30;99.90
13433;DHT22;6789;47.678;9.158;2023-08-30T00:51:52;13.20;99.90
13433;DHT22;6789;47.678;9.158;2023-08-30T00:56:45;13.30;99.90
13433;DHT22;6789;47.678;9.158;2023-08-30T01:01:38;13.30;99.90
13433;DHT22;6789;47.678;9.158;2023-08-30T01:06:30;13.20;99.90
13433;DHT22;6789;47.678;9.158;2023-08-30T01:11:43;13.30;99.90
13433;DHT22;6789;47.678;9.158;2023-08-30T01:16:42;13.20;99.90
13433;DHT22;6789;47.678;9.158;2023-08-30T01:21:48;13.30;99.90
13433;DHT22;6789;47.678;9.158;2023-08-30T01:32:14;13.30;99.90
13433;DHT22;6789;47.678;9.158;2023-08-30T01:37:08;13.30;99.90
13433;DHT22;6789;47.678;9.158;2023-08-30T01:42:01;13.20;99.90
13433;DHT22;6789;47.678;9.158;2023-08-30T01:46:55;13.20;99.90
13433;DHT22;6789;47.678;9.158;2023-08-30T01:51:50;13.30;99.90
13433;DHT22;6789;47.678;9.158;2023-08-30T01:56:43;13.30;99.90
13433;DHT22;6789;47.678;9.158;2023-08-30T02:01:35;13.30;99.90
13433;DHT22;6789;47.678;9.158;2023-08-30T02:06:34;13.30;99.90
13433;DHT22;6789;47.678;9.158;2023-08-30T02:11:32;13.20;99.90
13433;DHT22;6789;47.678;9.158;2023-08-30T02:16:27;13.20;99.90
13433;DHT22;6789;47.678;9.158;2023-08-30T02:21:19;13.30;99.90
13433;DHT22;6789;47.678;9.158;2023-08-30T02:26:11;13.30;99.90
13433;DHT22;6789;47.678;9.158;2023-08-30T02:31:02;13.20;99.90
13433;DHT22;6789;47.678;9.158;2023-08-30T02:35:54;13.20;99.90
13433;DHT22;6789;47.678;9.158;2023-08-30T02:40:46;13.20;99.90
13433;DHT22;6789;47.678;9.158;2023-08-30T02:45:38;13.10;99.90
13433;DHT22;6789;47.678;9.158;2023-08-30T02:50:30;13.10;99.90
13433;DHT22;6789;47.678;9.158;2023-08-30T02:55:21;13.10;99.90
13433;DHT22;6789;47.678;9.158;2023-08-30T03:00:14;13.10;99.90
13433;DHT22;6789;47.678;9.158;2023-08-30T03:05:06;13.10;99.90
13433;DHT22;6789;47.678;9.158;2023-08-30T03:09:58;13.20;99.90
13433;DHT22;6789;47.678;9.158;2023-08-30T03:14:50;13.20;99.90
13433;DHT22;6789;47.678;9.158;2023-08-30T03:19:42;13.20;99.90
13433;DHT22;6789;47.678;9.158;2023-08-30T03:24:34;13.10;99.90
13433;DHT22;6789;47.678;9.158;2023-08-30T03:29:26;13.20;99.90
13433;DHT22;6789;47.678;9.158;2023-08-30T03:34:18;13.30;99.90
13433;DHT22;6789;47.678;9.158;2023-08-30T03:39:10;13.30;99.90
13433;DHT22;6789;47.678;9.158;2023-08-30T03:44:02;13.20;99.90
13433;DHT22;6789;47.678;9.158;2023-08-30T03:48:54;13.20;99.90
13433;DHT22;6789;47.678;9.158;2023-08-30T03:53:46;13.10;99.90
13433;DHT22;6789;47.678;9.158;2023-08-30T03:58:37;13.10;99.90
13433;DHT22;6789;47.678;9.158;2023-08-30T04:03:29;13.10;99.90
13433;DHT22;6789;47.678;9.158;2023-08-30T04:08:21;13.10;99.90
13433;DHT22;6789;47.678;9.158;2023-08-30T04:13:13;13.10;99.90
13433;DHT22;6789;47.678;9.158;2023-08-30T04:18:06;13.00;99.90
13433;DHT22;6789;47.678;9.158;2023-08-30T04:22:59;13.10;99.90
13433;DHT22;6789;47.678;9.158;2023-08-30T04:27:55;13.10;99.90
13433;DHT22;6789;47.678;9.158;2023-08-30T04:32:46;13.20;99.90
13433;DHT22;6789;47.678;9.158;2023-08-30T04:37:38;13.10;99.90
13433;DHT22;6789;47.678;9.158;2023-08-30T04:42:30;13.10;99.90
13433;DHT22;6789;47.678;9.158;2023-08-30T04:47:22;13.10;99.90
13433;DHT22;6789;47.678;9.158;2023-08-30T04:52:14;13.10;99.90
13433;DHT22;6789;47.678;9.158;2023-08-30T04:57:06;13.10;99.90
13433;DHT22;6789;47.678;9.158;2023-08-30T05:01:57;13.10;99.90
13433;DHT22;6789;47.678;9.158;2023-08-30T05:06:50;13.10;99.90
13433;DHT22;6789;47.678;9.158;2023-08-30T05:11:42;13.00;99.90
13433;DHT22;6789;47.678;9.158;2023-08-30T05:16:34;13.20;99.90
13433;DHT22;6789;47.678;9.158;2023-08-30T05:21:26;13.30;99.90
13433;DHT22;6789;47.678;9.158;2023-08-30T05:26:17;13.40;99.90
13433;DHT22;6789;47.678;9.158;2023-08-30T05:31:10;13.30;99.90
13433;DHT22;6789;47.678;9.158;2023-08-30T05:36:03;13.30;99.90
13433;DHT22;6789;47.678;9.158;2023-08-30T05:40:55;13.40;99.90
13433;DHT22;6789;47.678;9.158;2023-08-30T05:45:47;13.40;99.90
13433;DHT22;6789;47.678;9.158;2023-08-30T05:50:39;13.50;99.90
13433;DHT22;6789;47.678;9.158;2023-08-30T05:55:32;13.50;99.90
13433;DHT22;6789;47.678;9.158;2023-08-30T06:00:23;13.40;99.90
13433;DHT22;6789;47.678;9.158;2023-08-30T06:05:17;13.60;99.90
13433;DHT22;6789;47.678;9.158;2023-08-30T06:10:10;13.60;99.90
13433;DHT22;6789;47.678;9.158;2023-08-30T06:15:03;13.70;99.90
13433;DHT22;6789;47.678;9.158;2023-08-30T06:19:57;13.80;99.90
13433;DHT22;6789;47.678;9.158;2023-08-30T06:24:50;13.90;99.90
13433;DHT22;6789;47.678;9.158;2023-08-30T06:29:50;14.10;99.90
13433;DHT22;6789;47.678;9.158;2023-08-30T06:34:42;14.20;99.90
13433;DHT22;6789;47.678;9.158;2023-08-30T06:39:35;14.10;99.90
13433;DHT22;6789;47.678;9.158;2023-08-30T06:44:28;14.30;99.90
13433;DHT22;6789;47.678;9.158;2023-08-30T06:49:21;14.40;99.90
13433;DHT22;6789;47.678;9.158;2023-08-30T06:54:13;14.50;99.90
13433;DHT22;6789;47.678;9.158;2023-08-30T06:59:05;14.70;99.90
13433;DHT22;6789;47.678;9.158;2023-08-30T07:03:56;14.90;99.90
13433;DHT22;6789;47.678;9.158;2023-08-30T07:08:48;15.20;99.90
13433;DHT22;6789;47.678;9.158;2023-08-30T07:13:40;15.40;99.90
13433;DHT22;6789;47.678;9.158;2023-08-30T07:18:32;15.50;99.90
13433;DHT22;6789;47.678;9.158;2023-08-30T07:23:23;15.70;99.90
13433;DHT22;6789;47.678;9.158;2023-08-30T07:28:15;16.00;99.90
13433;DHT22;6789;47.678;9.158;2023-08-30T07:33:09;16.40;99.90
13433;DHT22;6789;47.678;9.158;2023-08-30T07:38:00;17.00;99.90
13433;DHT22;6789;47.678;9.158;2023-08-30T07:42:52;17.60;99.90
13433;DHT22;6789;47.678;9.158;2023-08-30T07:47:46;18.20;99.90
13433;DHT22;6789;47.678;9.158;2023-08-30T07:52:38;18.60;99.90
13433;DHT22;6789;47.678;9.158;2023-08-30T07:57:36;18.80;99.90
13433;DHT22;6789;47.678;9.158;2023-08-30T08:02:28;19.10;99.90
13433;DHT22;6789;47.678;9.158;2023-08-30T08:07:20;19.50;99.90
13433;DHT22;6789;47.678;9.158;2023-08-30T08:12:12;19.70;99.90
13433;DHT22;6789;47.678;9.158;2023-08-30T08:17:04;19.90;99.90
13433;DHT22;6789;47.678;9.158;2023-08-30T08:21:56;19.60;99.90
13433;DHT22;6789;47.678;9.158;2023-08-30T08:26:48;19.20;99.90
13433;DHT22;6789;47.678;9.158;2023-08-30T08:31:41;18.60;99.90
13433;DHT22;6789;47.678;9.158;2023-08-30T08:36:33;18.20;99.90
13433;DHT22;6789;47.678;9.158;2023-08-30T08:41:28;17.80;99.90
13433;DHT22;6789;47.678;9.158;2023-08-30T08:46:34;17.70;99.90
13433;DHT22;6789;47.678;9.158;2023-08-30T08:51:31;17.60;99.90
13433;DHT22;6789;47.678;9.158;2023-08-30T08:56:26;17.60;99.90
13433;DHT22;6789;47.678;9.158;2023-08-30T09:01:18;17.70;99.90
13433;DHT22;6789;47.678;9.158;2023-08-30T09:06:25;17.90;99.90
13433;DHT22;6789;47.678;9.158;2023-08-30T09:11:17;18.20;99.90
13433;DHT22;6789;47.678;9.158;2023-08-30T09:16:13;18.70;99.90
13433;DHT22;6789;47.678;9.158;2023-08-30T09:21:06;19.20;99.90
13433;DHT22;6789;47.678;9.158;2023-08-30T09:25:59;19.40;99.90
13433;DHT22;6789;47.678;9.158;2023-08-30T09:30:52;19.20;99.90
13433;DHT22;6789;47.678;9.158;2023-08-30T09:35:44;19.00;99.90
13433;DHT22;6789;47.678;9.158;2023-08-30T09:40:37;19.00;99.90
13433;DHT22;6789;47.678;9.158;2023-08-30T09:45:30;19.40;99.90
13433;DHT22;6789;47.678;9.158;2023-08-30T09:50:22;19.70;99.90
13433;DHT22;6789;47.678;9.158;2023-08-30T09:55:15;19.50;99.90
13433;DHT22;6789;47.678;9.158;2023-08-30T10:00:07;19.10;99.90
13433;DHT22;6789;47.678;9.158;2023-08-30T10:05:02;19.00;99.90
13433;DHT22;6789;47.678;9.158;2023-08-30T10:09:56;19.20;99.90
13433;DHT22;6789;47.678;9.158;2023-08-30T10:15:09;19.50;99.90
13433;DHT22;6789;47.678;9.158;2023-08-30T10:20:05;19.60;99.90
13433;DHT22;6789;47.678;9.158;2023-08-30T10:25:01;19.60;99.90
13433;DHT22;6789;47.678;9.158;2023-08-30T10:30:09;19.50;99.90
13433;DHT22;6789;47.678;9.158;2023-08-30T10:35:03;19.70;99.90
13433;DHT22;6789;47.678;9.158;2023-08-30T10:40:02;19.50;99.90
13433;DHT22;6789;47.678;9.158;2023-08-30T10:45:03;19.50;99.90
13433;DHT22;6789;47.678;9.158;2023-08-30T10:50:00;19.50;99.90
13433;DHT22;6789;47.678;9.158;2023-08-30T10:55:09;19.30;99.90
13433;DHT22;6789;47.678;9.158;2023-08-30T11:05:09;19.40;99.90
13433;DHT22;6789;47.678;9.158;2023-08-30T11:10:04;19.50;99.90
13433;DHT22;6789;47.678;9.158;2023-08-30T11:14:57;19.60;99.90
13433;DHT22;6789;47.678;9.158;2023-08-30T11:19:50;19.90;99.90
13433;DHT22;6789;47.678;9.158;2023-08-30T11:24:48;19.70;99.90
13433;DHT22;6789;47.678;9.158;2023-08-30T11:29:40;19.60;99.90
13433;DHT22;6789;47.678;9.158;2023-08-30T11:34:32;20.00;99.90
13433;DHT22;6789;47.678;9.158;2023-08-30T11:39:24;20.40;99.90
13433;DHT22;6789;47.678;9.158;2023-08-30T11:44:19;20.30;99.90
13433;DHT22;6789;47.678;9.158;2023-08-30T11:49:15;20.30;99.90
13433;DHT22;6789;47.678;9.158;2023-08-30T11:54:07;20.40;99.90
13433;DHT22;6789;47.678;9.158;2023-08-30T11:59:00;20.50;99.90
13433;DHT22;6789;47.678;9.158;2023-08-30T12:03:52;20.70;99.90
13433;DHT22;6789;47.678;9.158;2023-08-30T12:08:44;20.50;99.90
13433;DHT22;6789;47.678;9.158;2023-08-30T12:13:36;20.40;99.90
13433;DHT22;6789;47.678;9.158;2023-08-30T12:18:32;20.60;99.90
13433;DHT22;6789;47.678;9.158;2023-08-30T12:23:26;20.90;99.90
13433;DHT22;6789;47.678;9.158;2023-08-30T12:28:19;21.10;99.90
13433;DHT22;6789;47.678;9.158;2023-08-30T12:33:11;21.20;99.90
13433;DHT22;6789;47.678;9.158;2023-08-30T12:38:08;21.10;99.90
13433;DHT22;6789;47.678;9.158;2023-08-30T12:43:00;21.20;99.90
13433;DHT22;6789;47.678;9.158;2023-08-30T12:47:52;21.30;99.90
13433;DHT22;6789;47.678;9.158;2023-08-30T12:52:44;21.60;99.90
13433;DHT22;6789;47.678;9.158;2023-08-30T12:57:36;21.60;99.90
13433;DHT22;6789;47.678;9.158;2023-08-30T13:02:28;21.30;99.90
13433;DHT22;6789;47.678;9.158;2023-08-30T13:07:20;21.30;99.90
13433;DHT22;6789;47.678;9.158;2023-08-30T13:12:12;21.50;99.90
13433;DHT22;6789;47.678;9.158;2023-08-30T13:17:04;21.40;99.90
13433;DHT22;6789;47.678;9.158;2023-08-30T13:21:55;21.40;99.90
13433;DHT22;6789;47.678;9.158;2023-08-30T13:26:48;21.30;99.90
13433;DHT22;6789;47.678;9.158;2023-08-30T13:31:39;21.40;99.90
13433;DHT22;6789;47.678;9.158;2023-08-30T13:36:31;21.40;99.90
13433;DHT22;6789;47.678;9.158;2023-08-30T13:41:23;21.30;99.90
13433;DHT22;6789;47.678;9.158;2023-08-30T13:46:15;21.60;99.90
13433;DHT22;6789;47.678;9.158;2023-08-30T13:51:07;21.80;99.90
13433;DHT22;6789;47.678;9.158;2023-08-30T13:55:59;21.90;99.90
13433;DHT22;6789;47.678;9.158;2023-08-30T14:00:51;22.10;99.90
13433;DHT22;6789;47.678;9.158;2023-08-30T14:05:44;22.20;99.90
13433;DHT22;6789;47.678;9.158;2023-08-30T14:10:35;22.00;99.90
13433;DHT22;6789;47.678;9.158;2023-08-30T14:15:27;22.20;99.90
13433;DHT22;6789;47.678;9.158;2023-08-30T14:20:19;22.40;99.90
13433;DHT22;6789;47.678;9.158;2023-08-30T14:25:11;22.50;99.90
13433;DHT22;6789;47.678;9.158;2023-08-30T14:30:05;22.50;99.90
13433;DHT22;6789;47.678;9.158;2023-08-30T14:34:57;22.70;99.90
13433;DHT22;6789;47.678;9.158;2023-08-30T14:39:49;23.00;99.90
13433;DHT22;6789;47.678;9.158;2023-08-30T14:44:44;23.20;99.90
13433;DHT22;6789;47.678;9.158;2023-08-30T14:49:40;23.10;99.90
13433;DHT22;6789;47.678;9.158;2023-08-30T14:54:32;22.70;99.90
13433;DHT22;6789;47.678;9.158;2023-08-30T14:59:23;22.40;99.90
13433;DHT22;6789;47.678;9.158;2023-08-30T15:04:15;22.40;99.90
13433;DHT22;6789;47.678;9.158;2023-08-30T15:09:09;22.20;99.90
13433;DHT22;6789;47.678;9.158;2023-08-30T15:14:03;21.90;99.90
13433;DHT22;6789;47.678;9.158;2023-08-30T15:18:54;21.70;99.90
13433;DHT22;6789;47.678;9.158;2023-08-30T15:23:46;21.80;99.90
13433;DHT22;6789;47.678;9.158;2023-08-30T15:28:38;22.00;99.90
13433;DHT22;6789;47.678;9.158;2023-08-30T15:33:29;22.00;99.90
13433;DHT22;6789;47.678;9.158;2023-08-30T15:38:21;22.10;99.90
13433;DHT22;6789;47.678;9.158;2023-08-30T15:43:13;22.20;99.90
13433;DHT22;6789;47.678;9.158;2023-08-30T15:48:06;22.20;99.90
13433;DHT22;6789;47.678;9.158;2023-08-30T15:52:57;21.80;99.90
13433;DHT22;6789;47.678;9.158;2023-08-30T15:57:49;21.70;99.90
13433;DHT22;6789;47.678;9.158;2023-08-30T16:02:41;21.50;99.90
13433;DHT22;6789;47.678;9.158;2023-08-30T16:07:35;21.30;99.90
13433;DHT22;6789;47.678;9.158;2023-08-30T16:12:29;21.20;99.90
13433;DHT22;6789;47.678;9.158;2023-08-30T16:17:21;21.00;99.90
13433;DHT22;6789;47.678;9.158;2023-08-30T16:22:13;20.90;99.90
13433;DHT22;6789;47.678;9.158;2023-08-30T16:27:07;20.80;99.90
13433;DHT22;6789;47.678;9.158;2023-08-30T16:31:59;20.60;99.90
13433;DHT22;6789;47.678;9.158;2023-08-30T16:36:51;20.60;99.90
13433;DHT22;6789;47.678;9.158;2023-08-30T16:41:44;20.50;99.90
13433;DHT22;6789;47.678;9.158;2023-08-30T16:46:51;20.40;99.90
13433;DHT22;6789;47.678;9.158;2023-08-30T16:51:43;20.30;99.90
13433;DHT22;6789;47.678;9.158;2023-08-30T16:56:39;20.20;99.90
13433;DHT22;6789;47.678;9.158;2023-08-30T17:01:31;20.20;99.90
13433;DHT22;6789;47.678;9.158;2023-08-30T17:06:23;20.10;99.90
13433;DHT22;6789;47.678;9.158;2023-08-30T17:16:20;19.90;99.90
13433;DHT22;6789;47.678;9.158;2023-08-30T17:21:23;19.90;99.90
13433;DHT22;6789;47.678;9.158;2023-08-30T17:26:20;19.70;99.90
13433;DHT22;6789;47.678;9.158;2023-08-30T17:31:23;19.60;99.90
13433;DHT22;6789;47.678;9.158;2023-08-30T17:36:19;19.60;99.90
13433;DHT22;6789;47.678;9.158;2023-08-30T17:41:19;19.40;99.90
13433;DHT22;6789;47.678;9.158;2023-08-30T17:46:10;19.30;99.90
13433;DHT22;6789;47.678;9.158;2023-08-30T17:51:02;19.20;99.90
13433;DHT22;6789;47.678;9.158;2023-08-30T17:55:58;19.10;99.90
13433;DHT22;6789;47.678;9.158;2023-08-30T18:00:53;19.10;99.90
13433;DHT22;6789;47.678;9.158;2023-08-30T18:05:49;19.00;99.90
13433;DHT22;6789;47.678;9.158;2023-08-30T18:10:42;18.90;99.90
13433;DHT22;6789;47.678;9.158;2023-08-30T18:15:38;18.70;99.90
13433;DHT22;6789;47.678;9.158;2023-08-30T18:20:29;18.50;99.90
13433;DHT22;6789;47.678;9.158;2023-08-30T18:25:21;18.40;99.90
13433;DHT22;6789;47.678;9.158;2023-08-30T18:30:14;18.10;99.90
13433;DHT22;6789;47.678;9.158;2023-08-30T18:35:08;17.90;99.90
13433;DHT22;6789;47.678;9.158;2023-08-30T18:40:03;17.80;99.90
13433;DHT22;6789;47.678;9.158;2023-08-30T18:44:57;17.60;99.90
13433;DHT22;6789;47.678;9.158;2023-08-30T18:49:50;17.50;99.90
13433;DHT22;6789;47.678;9.158;2023-08-30T18:54:42;17.40;99.90
13433;DHT22;6789;47.678;9.158;2023-08-30T18:59:38;17.40;99.90
13433;DHT22;6789;47.678;9.158;2023-08-30T19:04:31;17.30;99.90
13433;DHT22;6789;47.678;9.158;2023-08-30T19:09:32;17.30;99.90
13433;DHT22;6789;47.678;9.158;2023-08-30T19:14:26;17.30;99.90
13433;DHT22;6789;47.678;9.158;2023-08-30T19:19:19;17.20;99.90
13433;DHT22;6789;47.678;9.158;2023-08-30T19:24:13;17.20;99.90
13433;DHT22;6789;47.678;9.158;2023-08-30T19:29:06;17.10;99.90
13433;DHT22;6789;47.678;9.158;2023-08-30T19:34:05;17.00;99.90
13433;DHT22;6789;47.678;9.158;2023-08-30T19:38:58;17.00;99.90
13433;DHT22;6789;47.678;9.158;2023-08-30T19:43:53;16.90;99.90
13433;DHT22;6789;47.678;9.158;2023-08-30T19:48:48;16.70;99.90
13433;DHT22;6789;47.678;9.158;2023-08-30T19:53:41;16.70;99.90
13433;DHT22;6789;47.678;9.158;2023-08-30T19:58:33;16.50;99.90
13433;DHT22;6789;47.678;9.158;2023-08-30T20:03:26;16.40;99.90
13433;DHT22;6789;47.678;9.158;2023-08-30T20:08:19;16.30;99.90
13433;DHT22;6789;47.678;9.158;2023-08-30T20:13:11;16.20;99.90
13433;DHT22;6789;47.678;9.158;2023-08-30T20:18:04;16.10;99.90
13433;DHT22;6789;47.678;9.158;2023-08-30T20:22:58;16.00;99.90
13433;DHT22;6789;47.678;9.158;2023-08-30T20:27:50;15.90;99.90
13433;DHT22;6789;47.678;9.158;2023-08-30T20:32:43;15.90;99.90
13433;DHT22;6789;47.678;9.158;2023-08-30T20:37:35;15.90;99.90
13433;DHT22;6789;47.678;9.158;2023-08-30T20:42:27;15.90;99.90
13433;DHT22;6789;47.678;9.158;2023-08-30T20:47:31;15.90;99.90
13433;DHT22;6789;47.678;9.158;2023-08-30T20:52:24;15.90;99.90
13433;DHT22;6789;47.678;9.158;2023-08-30T20:57:16;15.90;99.90
13433;DHT22;6789;47.678;9.158;2023-08-30T21:02:07;15.90;99.90
13433;DHT22;6789;47.678;9.158;2023-08-30T21:07:00;15.70;99.90
13433;DHT22;6789;47.678;9.158;2023-08-30T21:11:53;15.60;99.90
13433;DHT22;6789;47.678;9.158;2023-08-30T21:16:46;15.70;99.90
13433;DHT22;6789;47.678;9.158;2023-08-30T21:21:42;15.50;99.90
13433;DHT22;6789;47.678;9.158;2023-08-30T21:26:34;15.50;99.90
13433;DHT22;6789;47.678;9.158;2023-08-30T21:31:26;15.40;99.90
13433;DHT22;6789;47.678;9.158;2023-08-30T21:36:18;15.40;99.90
13433;DHT22;6789;47.678;9.158;2023-08-30T21:41:11;15.40;99.90
13433;DHT22;6789;47.678;9.158;2023-08-30T21:46:04;15.50;99.90
13433;DHT22;6789;47.678;9.158;2023-08-30T21:50:56;15.50;99.90
13433;DHT22;6789;47.678;9.158;2023-08-30T21:55:49;15.30;99.90
13433;DHT22;6789;47.678;9.158;2023-08-30T22:00:41;15.10;99.90
13433;DHT22;6789;47.678;9.158;2023-08-30T22:05:33;15.00;99.90
13433;DHT22;6789;47.678;9.158;2023-08-30T22:10:26;14.90;99.90
13433;DHT22;6789;47.678;9.158;2023-08-30T22:15:20;14.80;99.90
13433;DHT22;6789;47.678;9.158;2023-08-30T22:20:13;14.70;99.90
13433;DHT22;6789;47.678;9.158;2023-08-30T22:25:10;14.70;99.90
13433;DHT22;6789;47.678;9.158;2023-08-30T22:30:04;14.60;99.90
13433;DHT22;6789;47.678;9.158;2023-08-30T22:34:58;14.60;99.90
13433;DHT22;6789;47.678;9.158;2023-08-30T22:39:51;14.60;99.90
13433;DHT22;6789;47.678;9.158;2023-08-30T22:44:44;14.60;99.90
13433;DHT22;6789;47.678;9.158;2023-08-30T22:49:38;14.60;99.90
13433;DHT22;6789;47.678;9.158;2023-08-30T22:54:30;14.60;99.90
13433;DHT22;6789;47.678;9.158;2023-08-30T22:59:22;14.50;99.90
13433;DHT22;6789;47.678;9.158;2023-08-30T23:04:17;14.40;99.90
13433;DHT22;6789;47.678;9.158;2023-08-30T23:09:10;14.40;99.90
13433;DHT22;6789;47.678;9.158;2023-08-30T23:14:04;14.40;99.90
13433;DHT22;6789;47.678;9.158;2023-08-30T23:18:55;14.60;99.90
13433;DHT22;6789;47.678;9.158;2023-08-30T23:23:47;14.90;99.90
13433;DHT22;6789;47.678;9.158;2023-08-30T23:28:39;14.90;99.90
13433;DHT22;6789;47.678;9.158;2023-08-30T23:33:32;14.90;99.90
13433;DHT22;6789;47.678;9.158;2023-08-30T23:38:26;15.00;99.90
13433;DHT22;6789;47.678;9.158;2023-08-30T23:43:18;15.00;99.90
13433;DHT22;6789;47.678;9.158;2023-08-30T23:48:10;15.20;99.90
13433;DHT22;6789;47.678;9.158;2023-08-30T23:53:02;15.30;99.90
13433;DHT22;6789;47.678;9.158;2023-08-30T23:57:55;15.30;99.90
